createdAt,value
2023-03-13T00:00:05.164Z,34.30
2023-03-13T00:00:55.015Z,34.47
2023-03-13T00:01:41.097Z,36.13
2023-03-13T00:02:20.941Z,40.13
2023-03-13T00:03:55.480Z,41.03
2023-03-13T00:05:22.201Z,40.93
2023-03-13T00:06:01.425Z,43.67
2023-03-13T00:06:43.330Z,42.73
2023-03-13T00:07:23.692Z,44.13
2023-03-13T00:08:43.319Z,41.13
2023-03-13T00:09:23.566Z,42.43
2023-03-13T00:10:04.866Z,42.87
2023-03-13T00:11:22.633Z,40.43
2023-03-13T00:12:59.027Z,38.70
2023-03-13T00:13:40.074Z,38.43
2023-03-13T00:14:23.045Z,40.37
2023-03-13T00:15:03.274Z,40.10
2023-03-13T00:15:41.976Z,39.77
2023-03-13T00:16:29.626Z,38.53
2023-03-13T00:17:19.105Z,40.07
2023-03-13T00:17:58.282Z,39.47
2023-03-13T00:18:39.081Z,39.73
2023-03-13T00:19:17.858Z,38.67
2023-03-13T00:20:00.178Z,40.23
2023-03-13T00:20:39.656Z,37.70
2023-03-13T00:21:28.177Z,39.90
2023-03-13T00:22:08.228Z,38.40
2023-03-13T00:22:48.010Z,37.90
2023-03-13T00:23:30.787Z,38.73
2023-03-13T00:25:01.315Z,38.03
2023-03-13T00:26:29.116Z,38.13
2023-03-13T00:27:18.083Z,37.53
2023-03-13T00:28:07.047Z,38.53
2023-03-13T00:28:54.097Z,36.80
2023-03-13T00:29:41.124Z,37.40
2023-03-13T00:30:21.303Z,36.67
2023-03-13T00:31:01.858Z,35.00
2023-03-13T00:31:42.507Z,36.87
2023-03-13T00:32:48.805Z,32.87
2023-03-13T00:34:24.005Z,31.27
2023-03-13T00:35:28.114Z,30.77
2023-03-13T00:36:06.815Z,30.03
2023-03-13T00:36:47.353Z,29.90
2023-03-13T00:38:05.316Z,24.97
2023-03-13T00:38:45.344Z,25.70
2023-03-13T00:39:32.097Z,25.00
2023-03-13T00:40:11.823Z,25.67
2023-03-13T00:41:04.772Z,27.43
2023-03-13T00:42:33.354Z,23.40
2023-03-13T00:43:36.946Z,28.50
2023-03-13T00:44:54.239Z,36.10
2023-03-13T00:47:03.954Z,34.70
2023-03-13T00:47:51.116Z,31.77
2023-03-13T00:48:31.472Z,32.73
2023-03-13T00:49:11.305Z,30.77
2023-03-13T00:49:58.140Z,30.87
2023-03-13T00:50:37.191Z,30.47
2023-03-13T00:51:27.025Z,32.03
2023-03-13T00:52:07.225Z,32.23
2023-03-13T00:52:47.210Z,33.30
2023-03-13T00:53:27.420Z,33.20
2023-03-13T00:54:07.803Z,33.17
2023-03-13T00:54:48.016Z,32.63
2023-03-13T00:55:30.211Z,32.03
2023-03-13T00:56:14.044Z,32.77
2023-03-13T00:56:56.180Z,32.33
2023-03-13T00:57:37.650Z,32.47
2023-03-13T00:59:16.960Z,33.87
2023-03-13T01:00:06.977Z,34.23
2023-03-13T01:00:46.450Z,33.43
2023-03-13T01:01:28.045Z,33.03
2023-03-13T01:02:47.441Z,33.43
2023-03-13T01:03:29.307Z,35.43
2023-03-13T01:04:11.884Z,33.83
2023-03-13T01:05:37.557Z,35.90
2023-03-13T01:06:18.992Z,36.17
2023-03-13T01:06:58.211Z,35.10
2023-03-13T01:07:37.299Z,35.83
2023-03-13T01:08:16.285Z,35.77
2023-03-13T01:09:45.008Z,35.10
2023-03-13T01:11:17.207Z,33.60
2023-03-13T01:12:34.312Z,33.80
2023-03-13T01:13:37.870Z,35.30
2023-03-13T01:16:15.156Z,34.73
2023-03-13T01:16:53.970Z,35.23
2023-03-13T01:17:40.080Z,34.43
2023-03-13T01:18:19.464Z,34.87
2023-03-13T01:19:12.911Z,36.53
2023-03-13T01:19:51.858Z,34.23
2023-03-13T01:20:32.475Z,34.47
2023-03-13T01:21:53.217Z,33.40
2023-03-13T01:23:09.945Z,32.67
2023-03-13T01:23:50.278Z,31.63
2023-03-13T01:25:36.613Z,31.33
2023-03-13T01:26:56.205Z,29.97
2023-03-13T01:27:36.444Z,30.10
2023-03-13T01:29:33.208Z,30.10
2023-03-13T01:30:12.612Z,27.77
2023-03-13T01:31:36.189Z,26.83
2023-03-13T01:32:23.219Z,26.87
2023-03-13T01:33:02.726Z,27.27
2023-03-13T01:33:46.623Z,27.17
2023-03-13T01:34:26.432Z,27.43
2023-03-13T01:35:06.462Z,26.97
2023-03-13T01:35:49.835Z,27.77
2023-03-13T01:37:08.289Z,27.67
2023-03-13T01:38:26.950Z,28.90
2023-03-13T01:39:44.480Z,28.30
2023-03-13T01:42:19.085Z,28.13
2023-03-13T01:43:00.362Z,27.40
2023-03-13T01:45:00.356Z,27.23
2023-03-13T01:46:10.290Z,26.47
2023-03-13T01:46:53.631Z,27.23
2023-03-13T01:47:33.880Z,26.53
2023-03-13T01:48:14.226Z,26.80
2023-03-13T01:49:15.034Z,26.83
2023-03-13T01:49:54.985Z,28.47
2023-03-13T01:50:34.437Z,27.40
2023-03-13T01:51:27.953Z,24.93
2023-03-13T01:53:06.644Z,24.90
2023-03-13T01:53:49.029Z,25.10
2023-03-13T01:54:34.713Z,25.47
2023-03-13T01:55:18.235Z,24.50
2023-03-13T01:56:01.222Z,24.13
2023-03-13T01:56:53.226Z,23.30
2023-03-13T01:57:41.184Z,24.80
2023-03-13T01:58:21.854Z,23.40
2023-03-13T01:59:02.658Z,23.07
2023-03-13T02:00:08.069Z,23.27
2023-03-13T02:00:50.370Z,22.63
2023-03-13T02:01:55.717Z,21.87
2023-03-13T02:05:20.181Z,21.97
2023-03-13T02:05:59.982Z,19.93
2023-03-13T02:06:51.312Z,21.87
2023-03-13T02:08:11.899Z,21.47
2023-03-13T02:08:50.859Z,21.60
2023-03-13T02:10:59.341Z,21.23
2023-03-13T02:12:10.670Z,20.20
2023-03-13T02:14:04.902Z,20.57
2023-03-13T02:14:41.400Z,20.53
2023-03-13T02:16:03.171Z,20.60
2023-03-13T02:16:42.865Z,19.70
2023-03-13T02:17:27.768Z,20.20
2023-03-13T02:19:23.900Z,20.00
2023-03-13T02:20:07.261Z,20.23
2023-03-13T02:20:54.133Z,18.83
2023-03-13T02:21:57.260Z,20.73
2023-03-13T02:22:49.877Z,19.53
2023-03-13T02:27:16.007Z,18.87
2023-03-13T02:28:18.869Z,18.87
2023-03-13T02:35:27.667Z,20.33
2023-03-13T02:37:13.073Z,19.63
2023-03-13T02:38:34.017Z,22.20
2023-03-13T02:39:19.218Z,22.17
2023-03-13T02:40:03.949Z,23.87
2023-03-13T02:41:08.803Z,25.53
2023-03-13T02:43:49.652Z,23.80
2023-03-13T02:44:54.167Z,22.43
2023-03-13T02:45:33.907Z,23.43
2023-03-13T02:46:20.156Z,24.13
2023-03-13T02:48:56.246Z,21.87
2023-03-13T02:51:05.157Z,23.13
2023-03-13T02:52:26.648Z,22.17
2023-03-13T02:56:12.563Z,22.03
2023-03-13T02:58:11.829Z,20.87
2023-03-13T02:59:57.059Z,21.53
2023-03-13T03:01:19.391Z,21.73
2023-03-13T03:01:59.051Z,20.83
2023-03-13T03:02:31.005Z,20.90
2023-03-13T03:03:02.892Z,20.63
2023-03-13T03:03:37.379Z,20.93
2023-03-13T03:04:58.231Z,22.13
2023-03-13T03:07:32.964Z,18.67
2023-03-13T03:08:04.693Z,19.60
2023-03-13T03:09:25.546Z,20.37
2023-03-13T03:13:40.829Z,18.73
2023-03-13T03:14:44.871Z,18.73
2023-03-13T03:15:27.048Z,17.93
2023-03-13T03:16:31.001Z,18.77
2023-03-13T03:20:50.608Z,19.47
2023-03-13T03:21:39.938Z,19.17
2023-03-13T03:22:11.663Z,18.63
2023-03-13T03:22:43.378Z,18.97
2023-03-13T03:23:15.267Z,19.70
2023-03-13T03:23:47.350Z,20.40
2023-03-13T03:26:26.887Z,20.03
2023-03-13T03:27:07.601Z,19.30
2023-03-13T03:28:28.969Z,20.90
2023-03-13T03:30:13.223Z,20.13
2023-03-13T03:32:06.006Z,19.93
2023-03-13T03:32:38.533Z,20.70
2023-03-13T03:34:30.956Z,21.67
2023-03-13T03:35:03.004Z,21.00
2023-03-13T03:35:38.626Z,20.90
2023-03-13T03:38:20.916Z,20.70
2023-03-13T03:38:53.133Z,20.47
2023-03-13T03:39:25.320Z,18.77
2023-03-13T03:41:37.891Z,19.03
2023-03-13T03:42:42.537Z,19.43
2023-03-13T03:44:04.552Z,19.47
2023-03-13T03:45:08.901Z,19.87
2023-03-13T03:45:48.187Z,20.23
2023-03-13T03:47:20.035Z,20.33
2023-03-13T03:48:24.085Z,19.80
2023-03-13T03:52:13.918Z,19.30
2023-03-13T03:52:45.812Z,19.50
2023-03-13T03:53:17.593Z,18.97
2023-03-13T03:55:14.441Z,19.80
2023-03-13T03:55:46.358Z,18.57
2023-03-13T03:56:18.138Z,18.57
2023-03-13T03:56:50.126Z,19.07
2023-03-13T03:58:23.720Z,20.53
2023-03-13T03:59:30.198Z,20.83
2023-03-13T04:03:15.737Z,17.67
2023-03-13T04:05:17.085Z,19.60
2023-03-13T04:06:10.230Z,18.50
2023-03-13T04:06:52.355Z,18.27
2023-03-13T04:07:32.365Z,19.50
2023-03-13T04:08:24.225Z,17.93
2023-03-13T04:09:06.475Z,18.63
2023-03-13T04:09:47.374Z,18.60
2023-03-13T04:10:51.083Z,17.70
2023-03-13T04:12:02.822Z,19.27
2023-03-13T04:12:34.854Z,19.50
2023-03-13T04:13:06.675Z,18.47
2023-03-13T04:13:38.427Z,17.90
2023-03-13T04:14:10.396Z,18.10
2023-03-13T04:14:42.265Z,18.03
2023-03-13T04:15:14.024Z,18.00
2023-03-13T04:17:37.003Z,18.43
2023-03-13T04:19:00.442Z,17.33
2023-03-13T04:21:50.266Z,17.37
2023-03-13T04:23:51.682Z,18.93
2023-03-13T04:27:00.200Z,18.60
2023-03-13T04:27:42.471Z,19.00
2023-03-13T04:28:46.026Z,18.93
2023-03-13T04:29:23.431Z,19.23
2023-03-13T04:29:55.191Z,19.50
2023-03-13T04:30:27.167Z,19.27
2023-03-13T04:31:06.378Z,19.60
2023-03-13T04:32:09.945Z,19.13
2023-03-13T04:34:40.273Z,19.70
2023-03-13T04:35:12.289Z,20.00
2023-03-13T04:35:51.376Z,19.03
2023-03-13T04:36:34.466Z,19.03
2023-03-13T04:38:13.661Z,19.17
2023-03-13T04:39:25.727Z,20.53
2023-03-13T04:40:06.128Z,20.40
2023-03-13T04:40:49.081Z,21.73
2023-03-13T04:41:38.368Z,20.70
2023-03-13T04:42:12.305Z,21.90
2023-03-13T04:42:59.262Z,21.63
2023-03-13T04:43:31.088Z,21.37
2023-03-13T04:44:03.020Z,21.83
2023-03-13T04:44:34.843Z,22.47
2023-03-13T04:45:07.598Z,23.47
2023-03-13T04:45:39.333Z,22.97
2023-03-13T04:46:11.085Z,22.00
2023-03-13T04:46:42.962Z,21.13
2023-03-13T04:47:15.439Z,22.37
2023-03-13T04:47:47.322Z,21.53
2023-03-13T04:50:51.272Z,22.03
2023-03-13T04:53:07.467Z,23.33
2023-03-13T04:54:27.706Z,23.43
2023-03-13T04:57:49.480Z,25.23
2023-03-13T04:58:30.401Z,25.63
2023-03-13T05:00:21.091Z,25.40
2023-03-13T05:00:53.981Z,25.27
2023-03-13T05:01:25.833Z,24.13
2023-03-13T05:01:57.670Z,24.97
2023-03-13T05:02:29.407Z,25.33
2023-03-13T05:03:01.391Z,25.57
2023-03-13T05:04:32.801Z,27.43
2023-03-13T05:05:12.210Z,25.33
2023-03-13T05:05:53.680Z,26.20
2023-03-13T05:06:57.349Z,25.63
2023-03-13T05:07:46.249Z,25.17
2023-03-13T05:08:42.256Z,25.57
2023-03-13T05:09:15.380Z,25.70
2023-03-13T05:09:47.263Z,25.50
2023-03-13T05:10:19.133Z,24.40
2023-03-13T05:10:50.878Z,25.87
2023-03-13T05:11:22.698Z,25.60
2023-03-13T05:15:23.006Z,25.30
2023-03-13T05:16:19.677Z,26.57
2023-03-13T05:19:40.707Z,26.17
2023-03-13T05:20:24.452Z,26.77
2023-03-13T05:21:35.417Z,28.37
2023-03-13T05:22:27.514Z,29.23
2023-03-13T05:23:09.463Z,27.83
2023-03-13T05:23:41.325Z,27.30
2023-03-13T05:26:16.360Z,27.20
2023-03-13T05:27:45.985Z,25.57
2023-03-13T05:28:26.763Z,27.13
2023-03-13T05:29:09.463Z,26.57
2023-03-13T05:29:42.396Z,28.60
2023-03-13T05:30:14.315Z,28.13
2023-03-13T05:30:46.356Z,28.03
2023-03-13T05:31:26.176Z,27.47
2023-03-13T05:32:05.636Z,28.80
2023-03-13T05:32:47.431Z,26.17
2023-03-13T05:33:28.621Z,24.60
2023-03-13T05:37:41.589Z,23.37
2023-03-13T05:38:54.954Z,24.03
2023-03-13T05:39:34.385Z,22.83
2023-03-13T05:40:06.758Z,23.07
2023-03-13T05:40:38.561Z,22.97
2023-03-13T05:41:10.322Z,23.60
2023-03-13T05:41:42.148Z,23.90
2023-03-13T05:42:13.875Z,24.23
2023-03-13T05:42:46.010Z,24.50
2023-03-13T05:43:25.998Z,24.40
2023-03-13T05:44:08.715Z,24.07
2023-03-13T05:44:58.368Z,24.87
2023-03-13T05:46:02.125Z,25.37
2023-03-13T05:47:44.057Z,24.03
2023-03-13T05:50:56.220Z,24.47
2023-03-13T05:51:45.192Z,28.03
2023-03-13T05:58:18.987Z,26.73
2023-03-13T06:00:33.661Z,24.93
2023-03-13T06:01:15.331Z,24.90
2023-03-13T06:01:47.110Z,24.80
2023-03-13T06:02:18.850Z,25.07
2023-03-13T06:02:50.598Z,24.63
2023-03-13T06:03:25.966Z,24.63
2023-03-13T06:05:24.910Z,26.10
2023-03-13T06:06:29.206Z,26.53
2023-03-13T06:12:20.573Z,29.87
2023-03-13T06:12:54.403Z,28.83
2023-03-13T06:13:26.297Z,28.67
2023-03-13T06:13:58.193Z,31.07
2023-03-13T06:14:29.903Z,30.20
2023-03-13T06:15:01.976Z,30.63
2023-03-13T06:15:33.711Z,30.87
2023-03-13T06:16:06.059Z,30.57
2023-03-13T06:16:37.979Z,32.10
2023-03-13T06:17:10.124Z,31.30
2023-03-13T06:17:42.124Z,30.67
2023-03-13T06:18:14.101Z,30.77
2023-03-13T06:18:46.774Z,31.93
2023-03-13T06:19:19.051Z,29.77
2023-03-13T06:29:04.323Z,25.27
2023-03-13T06:31:30.147Z,24.47
2023-03-13T06:32:19.533Z,25.23
2023-03-13T06:34:41.240Z,25.70
2023-03-13T06:35:28.956Z,25.40
2023-03-13T06:36:02.196Z,25.87
2023-03-13T06:36:34.492Z,26.40
2023-03-13T06:37:06.262Z,25.60
2023-03-13T06:37:38.075Z,25.47
2023-03-13T06:38:11.199Z,25.37
2023-03-13T06:38:43.036Z,26.50
2023-03-13T06:40:04.189Z,26.27
2023-03-13T06:40:46.395Z,24.67
2023-03-13T06:46:56.172Z,24.53
2023-03-13T06:47:39.994Z,25.00
2023-03-13T06:51:27.183Z,23.13
2023-03-13T06:52:43.904Z,22.67
2023-03-13T06:54:54.331Z,23.27
2023-03-13T06:56:37.851Z,22.73
2023-03-13T06:57:17.864Z,24.37
2023-03-13T06:58:06.719Z,23.83
2023-03-13T06:58:49.705Z,22.80
2023-03-13T06:59:41.535Z,23.60
2023-03-13T07:01:48.485Z,24.60
2023-03-13T07:02:56.127Z,25.30
2023-03-13T07:04:00.026Z,23.57
2023-03-13T07:05:31.063Z,24.37
2023-03-13T07:06:35.546Z,24.50
2023-03-13T07:15:25.202Z,24.40
2023-03-13T07:16:21.506Z,25.00
2023-03-13T07:17:13.423Z,24.30
2023-03-13T07:19:33.425Z,21.67
2023-03-13T07:21:08.101Z,19.70
2023-03-13T07:21:57.423Z,20.20
2023-03-13T07:24:35.538Z,19.73
2023-03-13T07:25:27.545Z,19.93
2023-03-13T07:26:13.675Z,19.60
2023-03-13T07:27:30.038Z,19.97
2023-03-13T07:31:36.273Z,19.80
2023-03-13T07:32:08.347Z,19.70
2023-03-13T07:32:41.005Z,20.30
2023-03-13T07:35:18.972Z,19.90
2023-03-13T07:36:41.941Z,20.03
2023-03-13T07:37:48.540Z,19.23
2023-03-13T07:38:52.586Z,20.87
2023-03-13T07:40:11.277Z,19.10
2023-03-13T07:40:50.388Z,21.17
2023-03-13T07:41:30.400Z,20.70
2023-03-13T07:42:34.869Z,20.23
2023-03-13T07:43:14.156Z,20.33
2023-03-13T07:43:53.812Z,19.60
2023-03-13T07:46:13.165Z,19.07
2023-03-13T07:46:54.651Z,19.70
2023-03-13T07:47:36.310Z,19.00
2023-03-13T07:48:33.055Z,18.93
2023-03-13T07:50:00.013Z,18.57
2023-03-13T07:53:47.870Z,17.73
2023-03-13T07:54:39.001Z,17.90
2023-03-13T07:58:01.270Z,17.03
2023-03-13T07:58:50.109Z,18.07
2023-03-13T07:59:29.134Z,17.93
2023-03-13T08:00:16.700Z,16.87
2023-03-13T08:02:44.333Z,18.20
2023-03-13T08:03:32.445Z,18.47
2023-03-13T08:05:17.245Z,16.83
2023-03-13T08:06:37.613Z,18.00
2023-03-13T08:07:29.446Z,17.43
2023-03-13T08:08:33.291Z,17.13
2023-03-13T08:09:12.129Z,16.77
2023-03-13T08:09:51.750Z,17.27
2023-03-13T08:11:02.846Z,15.70
2023-03-13T08:13:03.797Z,13.33
2023-03-13T08:14:33.565Z,13.67
2023-03-13T08:15:28.918Z,14.50
2023-03-13T08:16:34.802Z,13.33
2023-03-13T08:18:39.754Z,14.13
2023-03-13T08:19:29.494Z,13.50
2023-03-13T08:20:32.689Z,12.47
2023-03-13T08:22:02.214Z,11.53
2023-03-13T08:22:48.452Z,10.90
2023-03-13T08:24:13.372Z,10.30
2023-03-13T08:25:02.982Z,10.70
2023-03-13T08:25:45.994Z,10.50
2023-03-13T08:26:33.264Z,10.13
2023-03-13T08:27:53.543Z,10.77
2023-03-13T08:28:37.256Z,11.13
2023-03-13T08:29:31.032Z,11.17
2023-03-13T08:30:13.199Z,10.83
2023-03-13T08:31:21.450Z,10.70
2023-03-13T08:32:52.317Z,11.77
2023-03-13T08:34:04.191Z,11.37
2023-03-13T08:34:56.423Z,10.87
2023-03-13T08:35:38.658Z,11.30
2023-03-13T08:36:24.736Z,11.73
2023-03-13T08:37:04.765Z,11.17
2023-03-13T08:37:44.562Z,11.20
2023-03-13T08:38:26.709Z,11.17
2023-03-13T08:39:18.155Z,10.43
2023-03-13T08:40:00.790Z,9.53
2023-03-13T08:40:51.412Z,9.13
2023-03-13T08:41:36.507Z,8.67
2023-03-13T08:42:41.078Z,8.10
2023-03-13T08:45:34.865Z,8.03
2023-03-13T08:46:45.502Z,7.87
2023-03-13T08:47:29.105Z,8.03
2023-03-13T08:48:59.186Z,8.43
2023-03-13T08:50:03.533Z,8.17
2023-03-13T08:52:11.557Z,8.57
2023-03-13T08:53:01.056Z,8.50
2023-03-13T08:54:28.448Z,8.60
2023-03-13T08:55:10.344Z,8.97
2023-03-13T08:56:30.204Z,9.03
2023-03-13T08:57:12.624Z,9.53
2023-03-13T08:58:01.544Z,9.43
2023-03-13T08:58:54.526Z,9.13
2023-03-13T08:59:34.671Z,9.03
2023-03-13T09:00:18.827Z,8.43
2023-03-13T09:01:07.957Z,9.20
2023-03-13T09:01:47.852Z,8.97
2023-03-13T09:02:30.646Z,9.50
2023-03-13T09:03:10.501Z,9.47
2023-03-13T09:03:53.068Z,9.17
2023-03-13T09:04:33.607Z,9.30
2023-03-13T09:05:14.974Z,9.23
2023-03-13T09:06:40.137Z,10.27
2023-03-13T09:07:44.233Z,10.30
2023-03-13T09:08:33.025Z,9.70
2023-03-13T09:11:30.445Z,9.97
2023-03-13T09:12:34.218Z,9.83
2023-03-13T09:17:15.370Z,10.03
2023-03-13T09:17:55.809Z,10.27
2023-03-13T09:18:44.225Z,10.53
2023-03-13T09:20:33.300Z,9.33
2023-03-13T09:21:53.624Z,9.17
2023-03-13T09:22:33.612Z,9.27
2023-03-13T09:23:23.105Z,8.80
2023-03-13T09:24:03.841Z,8.93
2023-03-13T09:24:53.487Z,8.87
2023-03-13T09:25:42.657Z,8.93
2023-03-13T09:27:54.325Z,9.30
2023-03-13T09:29:26.697Z,9.70
2023-03-13T09:30:18.449Z,9.83
2023-03-13T09:31:15.074Z,9.70
2023-03-13T09:31:57.493Z,9.30
2023-03-13T09:33:03.154Z,9.70
2023-03-13T09:33:43.070Z,10.53
2023-03-13T09:34:47.280Z,10.73
2023-03-13T09:36:56.675Z,8.70
2023-03-13T09:37:48.435Z,7.47
2023-03-13T09:38:32.094Z,7.20
2023-03-13T09:39:12.765Z,7.03
2023-03-13T09:40:04.755Z,6.87
2023-03-13T09:42:41.520Z,6.90
2023-03-13T09:45:49.820Z,6.80
2023-03-13T09:46:29.478Z,7.53
2023-03-13T09:47:22.772Z,7.07
2023-03-13T09:48:11.924Z,7.20
2023-03-13T09:48:57.569Z,7.00
2023-03-13T09:49:39.820Z,6.23
2023-03-13T09:50:32.429Z,6.67
2023-03-13T09:51:35.460Z,6.67
2023-03-13T09:52:26.715Z,6.63
2023-03-13T09:53:09.293Z,6.83
2023-03-13T09:54:02.256Z,6.77
2023-03-13T09:54:42.566Z,6.23
2023-03-13T09:56:41.073Z,6.37
2023-03-13T09:57:49.250Z,6.47
2023-03-13T09:58:42.743Z,6.60
2023-03-13T09:59:34.290Z,6.50
2023-03-13T10:00:41.490Z,6.53
2023-03-13T10:01:31.369Z,6.80
2023-03-13T10:02:36.121Z,6.87
2023-03-13T10:03:15.142Z,6.60
2023-03-13T10:04:07.767Z,6.93
2023-03-13T10:05:42.536Z,7.07
2023-03-13T10:06:24.996Z,7.63
2023-03-13T10:08:50.483Z,7.30
2023-03-13T10:09:54.177Z,7.07
2023-03-13T10:10:35.042Z,7.47
2023-03-13T10:14:06.609Z,7.80
2023-03-13T10:15:01.713Z,7.97
2023-03-13T10:15:42.806Z,8.03
2023-03-13T10:16:35.073Z,8.63
2023-03-13T10:17:34.832Z,8.37
2023-03-13T10:18:20.642Z,7.93
2023-03-13T10:19:14.212Z,8.10
2023-03-13T10:20:09.942Z,8.30
2023-03-13T10:20:59.886Z,8.47
2023-03-13T10:22:04.370Z,8.30
2023-03-13T10:22:49.129Z,7.00
2023-03-13T10:23:41.212Z,6.60
2023-03-13T10:24:35.620Z,6.50
2023-03-13T10:25:33.730Z,6.10
2023-03-13T10:26:20.155Z,6.30
2023-03-13T10:26:59.919Z,5.67
2023-03-13T10:29:21.271Z,5.90
2023-03-13T10:30:00.766Z,5.87
2023-03-13T10:31:18.873Z,5.53
2023-03-13T10:32:18.735Z,5.03
2023-03-13T10:33:38.622Z,4.70
2023-03-13T10:34:21.703Z,5.30
2023-03-13T10:35:04.295Z,4.87
2023-03-13T10:35:46.810Z,4.77
2023-03-13T10:38:12.268Z,6.00
2023-03-13T10:39:01.434Z,5.47
2023-03-13T10:41:50.052Z,5.93
2023-03-13T10:42:43.913Z,6.50
2023-03-13T10:43:29.699Z,6.13
2023-03-13T10:44:14.599Z,6.40
2023-03-13T10:45:06.360Z,6.13
2023-03-13T10:45:55.493Z,5.77
2023-03-13T10:46:40.393Z,5.43
2023-03-13T10:47:22.879Z,5.30
2023-03-13T10:48:18.896Z,5.40
2023-03-13T10:49:58.057Z,5.47
2023-03-13T10:51:02.572Z,5.47
2023-03-13T10:51:52.125Z,5.87
2023-03-13T10:52:56.530Z,5.17
2023-03-13T10:55:05.142Z,5.63
2023-03-13T10:56:20.234Z,5.27
2023-03-13T10:57:38.557Z,5.33
2023-03-13T10:58:31.738Z,5.23
2023-03-13T10:59:25.291Z,5.03
2023-03-13T11:00:28.938Z,5.10
2023-03-13T11:01:58.167Z,5.23
2023-03-13T11:03:05.686Z,5.03
2023-03-13T11:05:47.288Z,5.63
2023-03-13T11:06:35.242Z,5.17
2023-03-13T11:07:17.247Z,5.33
2023-03-13T11:07:58.871Z,5.23
2023-03-13T11:08:38.355Z,4.73
2023-03-13T11:09:21.333Z,5.13
2023-03-13T11:10:03.327Z,5.40
2023-03-13T11:11:00.868Z,5.77
2023-03-13T11:12:09.798Z,5.33
2023-03-13T11:13:43.666Z,4.47
2023-03-13T11:16:24.333Z,4.57
2023-03-13T11:17:39.925Z,5.17
2023-03-13T11:18:26.693Z,4.27
2023-03-13T11:19:27.145Z,4.77
2023-03-13T11:20:06.767Z,5.20
2023-03-13T11:20:49.284Z,5.13
2023-03-13T11:22:00.928Z,5.07
2023-03-13T11:22:43.280Z,4.47
2023-03-13T11:23:36.287Z,4.10
2023-03-13T11:26:16.311Z,3.67
2023-03-13T11:28:24.430Z,3.57
2023-03-13T11:29:21.368Z,4.00
2023-03-13T11:35:11.741Z,4.33
2023-03-13T11:36:48.874Z,4.20
2023-03-13T11:37:29.759Z,4.80
2023-03-13T11:38:52.376Z,4.60
2023-03-13T11:40:32.828Z,4.83
2023-03-13T11:41:26.160Z,4.37
2023-03-13T11:42:08.498Z,4.63
2023-03-13T11:43:17.808Z,4.63
2023-03-13T11:44:04.964Z,4.43
2023-03-13T11:45:02.555Z,4.60
2023-03-13T11:45:51.663Z,4.33
2023-03-13T11:46:44.656Z,4.00
2023-03-13T11:48:51.183Z,4.53
2023-03-13T11:51:05.177Z,4.07
2023-03-13T11:52:12.357Z,4.03
2023-03-13T11:53:07.306Z,4.63
2023-03-13T11:54:35.983Z,4.57
2023-03-13T11:55:39.885Z,5.33
2023-03-13T11:56:35.512Z,4.60
2023-03-13T11:58:06.395Z,5.83
2023-03-13T11:58:46.386Z,6.47
2023-03-13T11:59:41.602Z,5.97
2023-03-13T12:01:02.281Z,5.10
2023-03-13T12:02:15.491Z,4.83
2023-03-13T12:03:54.893Z,4.83
2023-03-13T12:05:07.547Z,4.60
2023-03-13T12:05:52.561Z,3.70
2023-03-13T12:06:44.441Z,4.40
2023-03-13T12:07:28.908Z,5.07
2023-03-13T12:08:32.183Z,5.40
2023-03-13T12:10:16.357Z,4.70
2023-03-13T12:13:02.876Z,5.40
2023-03-13T12:13:56.647Z,5.10
2023-03-13T12:14:41.828Z,4.40
2023-03-13T12:15:47.322Z,4.57
2023-03-13T12:16:56.148Z,5.47
2023-03-13T12:18:16.525Z,5.53
2023-03-13T12:18:58.975Z,5.23
2023-03-13T12:20:40.954Z,5.07
2023-03-13T12:21:29.713Z,4.70
2023-03-13T12:22:20.480Z,4.27
2023-03-13T12:24:12.231Z,4.30
2023-03-13T12:24:51.236Z,4.87
2023-03-13T12:26:07.440Z,5.07
2023-03-13T12:29:23.430Z,4.63
2023-03-13T12:32:44.696Z,3.60
2023-03-13T12:33:54.330Z,3.90
2023-03-13T12:34:59.460Z,4.47
2023-03-13T12:36:42.338Z,3.73
2023-03-13T12:38:02.159Z,4.07
2023-03-13T12:39:35.130Z,3.07
2023-03-13T12:40:28.660Z,3.23
2023-03-13T12:41:25.943Z,3.40
2023-03-13T12:42:33.322Z,2.83
2023-03-13T12:44:20.411Z,3.23
2023-03-13T12:47:09.590Z,2.83
2023-03-13T12:50:06.952Z,2.87
2023-03-13T12:52:05.244Z,2.90
2023-03-13T12:52:47.641Z,2.53
2023-03-13T12:54:40.367Z,2.77
2023-03-13T12:56:24.447Z,2.77
2023-03-13T12:57:16.318Z,3.17
2023-03-13T12:58:19.906Z,3.10
2023-03-13T12:59:23.945Z,2.73
2023-03-13T13:00:22.126Z,2.53
2023-03-13T13:01:07.767Z,2.87
2023-03-13T13:02:00.108Z,2.43
2023-03-13T13:02:40.522Z,2.67
2023-03-13T13:03:41.075Z,2.27
2023-03-13T13:04:41.737Z,2.40
2023-03-13T13:05:30.683Z,2.90
2023-03-13T13:06:55.881Z,2.87
2023-03-13T13:08:53.532Z,3.00
2023-03-13T13:09:34.111Z,2.57
2023-03-13T13:10:29.165Z,2.73
2023-03-13T13:11:50.757Z,2.93
2023-03-13T13:13:12.955Z,2.80
2023-03-13T13:16:21.386Z,2.73
2023-03-13T13:17:21.297Z,2.83
2023-03-13T13:18:25.313Z,2.70
2023-03-13T13:19:25.653Z,2.50
2023-03-13T13:20:27.104Z,2.83
2023-03-13T13:21:15.843Z,2.70
2023-03-13T13:22:33.666Z,2.73
2023-03-13T13:23:28.299Z,2.93
2023-03-13T13:24:48.992Z,2.77
2023-03-13T13:26:55.533Z,3.07
2023-03-13T13:27:43.441Z,3.07
2023-03-13T13:28:33.597Z,2.80
2023-03-13T13:30:33.673Z,3.23
2023-03-13T13:33:41.307Z,3.33
2023-03-13T13:37:25.323Z,3.23
2023-03-13T13:39:43.699Z,3.13
2023-03-13T13:41:09.865Z,3.63
2023-03-13T13:41:49.802Z,3.43
2023-03-13T13:42:42.261Z,3.30
2023-03-13T13:43:36.647Z,3.37
2023-03-13T13:44:25.079Z,3.47
2023-03-13T13:45:16.456Z,3.17
2023-03-13T13:45:57.402Z,3.03
2023-03-13T13:46:45.905Z,3.47
2023-03-13T13:48:21.765Z,3.83
2023-03-13T13:49:45.482Z,3.50
2023-03-13T13:52:49.142Z,4.03
2023-03-13T13:53:50.787Z,3.73
2023-03-13T13:54:34.796Z,3.30
2023-03-13T13:55:40.610Z,3.20
2023-03-13T13:57:08.083Z,3.40
2023-03-13T13:58:14.016Z,3.27
2023-03-13T13:59:56.917Z,3.33
2023-03-13T14:01:41.241Z,3.70
2023-03-13T14:02:19.952Z,3.23
2023-03-13T14:03:00.821Z,3.17
2023-03-13T14:04:46.639Z,3.07
2023-03-13T14:05:29.795Z,2.93
2023-03-13T14:06:24.991Z,3.63
2023-03-13T14:07:06.797Z,3.57
2023-03-13T14:07:55.519Z,3.80
2023-03-13T14:08:42.429Z,3.50
2023-03-13T14:09:42.703Z,3.30
2023-03-13T14:11:21.714Z,3.50
2023-03-13T14:12:48.513Z,3.27
2023-03-13T14:13:30.893Z,3.77
2023-03-13T14:15:09.118Z,3.53
2023-03-13T14:15:54.171Z,3.27
2023-03-13T14:16:34.095Z,3.53
2023-03-13T14:18:41.981Z,3.87
2023-03-13T14:19:22.642Z,3.37
2023-03-13T14:20:54.889Z,3.27
2023-03-13T14:21:51.423Z,3.27
2023-03-13T14:23:21.419Z,3.73
2023-03-13T14:23:59.937Z,3.63
2023-03-13T14:24:42.764Z,3.87
2023-03-13T14:25:25.872Z,3.60
2023-03-13T14:26:17.960Z,3.67
2023-03-13T14:26:58.121Z,3.87
2023-03-13T14:28:26.042Z,3.80
2023-03-13T14:29:08.175Z,4.37
2023-03-13T14:30:09.472Z,3.53
2023-03-13T14:31:37.210Z,3.97
2023-03-13T14:33:36.644Z,3.90
2023-03-13T14:35:16.328Z,3.97
2023-03-13T14:35:58.568Z,3.57
2023-03-13T14:37:01.446Z,3.67
2023-03-13T14:38:24.533Z,3.57
2023-03-13T14:39:55.272Z,3.60
2023-03-13T14:40:39.525Z,3.73
2023-03-13T14:43:35.408Z,4.20
2023-03-13T14:44:25.753Z,4.03
2023-03-13T14:45:32.314Z,4.33
2023-03-13T14:46:29.133Z,4.33
2023-03-13T14:47:21.827Z,3.77
2023-03-13T14:48:32.051Z,4.33
2023-03-13T14:49:20.992Z,4.40
2023-03-13T14:50:11.599Z,4.47
2023-03-13T14:51:14.302Z,4.53
2023-03-13T14:52:01.078Z,4.63
2023-03-13T14:53:27.345Z,4.20
2023-03-13T14:54:06.780Z,4.93
2023-03-13T14:55:04.602Z,4.87
2023-03-13T14:56:21.596Z,4.60
2023-03-13T14:57:05.542Z,4.50
2023-03-13T14:58:07.491Z,4.07
2023-03-13T14:59:05.942Z,4.53
2023-03-13T14:59:53.143Z,4.50
2023-03-13T15:00:32.638Z,4.80
2023-03-13T15:01:32.788Z,5.03
2023-03-13T15:02:32.449Z,5.07
2023-03-13T15:03:17.248Z,4.80
2023-03-13T15:04:41.712Z,4.53
2023-03-13T15:05:54.439Z,4.73
2023-03-13T15:07:14.556Z,4.83
2023-03-13T15:07:57.140Z,5.07
2023-03-13T15:09:51.249Z,5.00
2023-03-13T15:11:20.367Z,4.90
2023-03-13T15:12:43.589Z,5.07
2023-03-13T15:13:29.480Z,5.27
2023-03-13T15:14:34.602Z,4.70
2023-03-13T15:15:53.467Z,4.50
2023-03-13T15:16:32.589Z,4.67
2023-03-13T15:17:36.067Z,4.97
2023-03-13T15:19:13.454Z,4.87
2023-03-13T15:19:59.093Z,5.03
2023-03-13T15:21:59.063Z,4.40
2023-03-13T15:23:02.911Z,4.80
2023-03-13T15:23:41.952Z,4.63
2023-03-13T15:24:22.783Z,4.93
2023-03-13T15:26:08.725Z,4.83
2023-03-13T15:27:27.113Z,4.43
2023-03-13T15:28:30.976Z,4.30
2023-03-13T15:30:07.998Z,4.60
2023-03-13T15:31:29.193Z,4.43
2023-03-13T15:32:50.477Z,4.57
2023-03-13T15:33:56.307Z,4.40
2023-03-13T15:34:34.099Z,4.17